Time;durP1;ratioP1;P1;durP2;ratioP2;P2;SDS_P1;SDS_P2;PMS_P1;PMS_P2;Temp;Humidity;BMP_temperature;BMP_pressure;BME280_temperature;BME280_humidity;BME280_pressure;Samples;Min_cycle;Max_cycle;Signal;HPM_P1;HPM_P2
2024/02/04 00:00:02;;;;;;;20.90;11.10;;;;;;;0.78;69.45;96717.69;5048248;28;20060;-64
2024/02/04 00:02:30;;;;;;;16.65;10.02;;;;;;;0.47;69.71;96651.97;5048550;28;20437;-62
2024/02/04 00:04:56;;;;;;;16.02;9.30;;;;;;;0.73;69.78;96698.84;5048174;28;20056;-63
2024/02/04 00:07:21;;;;;;;17.38;9.38;;;;;;;0.75;69.94;96697.69;5049132;28;20029;-69
2024/02/04 00:09:47;;;;;;;13.57;8.50;;;;;;;0.81;69.53;96693.69;5052311;28;20017;-62
2024/02/04 00:12:12;;;;;;;12.63;8.32;;;;;;;0.77;69.61;96689.69;5051220;28;20420;-63
2024/02/04 00:14:38;;;;;;;14.90;9.05;;;;;;;0.75;69.88;96694.25;5051814;28;20088;-63
2024/02/04 00:17:03;;;;;;;15.00;8.90;;;;;;;0.70;70.39;96678.88;5050847;28;20444;-63
2024/02/04 00:19:29;;;;;;;15.65;8.93;;;;;;;0.70;70.56;96676.22;5050289;28;20029;-65
2024/02/04 00:21:55;;;;;;;17.80;9.10;;;;;;;0.74;70.56;96661.81;5051968;28;20240;-62
2024/02/04 00:24:20;;;;;;;14.70;8.32;;;;;;;0.68;70.20;96652.66;5051818;28;20032;-64
2024/02/04 00:26:46;;;;;;;12.27;7.85;;;;;;;0.59;69.88;96632.44;5051087;28;20077;-62
2024/02/04 00:29:11;;;;;;;13.60;8.25;;;;;;;0.70;70.40;96652.53;5051755;28;20029;-63
2024/02/04 00:31:37;;;;;;;15.75;8.73;;;;;;;0.70;70.70;96655.97;5051453;28;20033;-62
2024/02/04 00:34:03;;;;;;;13.93;7.60;;;;;;;0.53;70.77;96617.22;5051321;28;20113;-62
2024/02/04 00:36:28;;;;;;;14.48;8.05;;;;;;;0.74;70.59;96637.28;5051422;28;20029;-64
2024/02/04 00:38:54;;;;;;;13.13;7.90;;;;;;;0.72;70.58;96624.25;5051880;28;20112;-64
2024/02/04 00:41:19;;;;;;;11.10;7.97;;;;;;;0.71;70.77;96628.69;5050622;28;20116;-63
2024/02/04 00:43:45;;;;;;;14.63;8.23;;;;;;;0.79;71.09;96625.34;5050920;28;20037;-62
2024/02/04 00:46:10;;;;;;;11.88;7.22;;;;;;;0.79;71.04;96620.06;5050487;28;20169;-63
2024/02/04 00:48:37;;;;;;;13.20;7.38;;;;;;;0.55;71.17;96573.97;5051018;27;20449;-63
2024/02/04 00:51:03;;;;;;;9.32;6.82;;;;;;;0.56;71.19;96566.91;5033652;28;20049;-63
2024/02/04 00:53:33;;;;;;;10.82;7.60;;;;;;;0.90;71.48;96623.53;5050821;28;20107;-67
2024/02/04 00:56:01;;;;;;;9.80;7.00;;;;;;;0.68;71.17;96567.59;5051933;28;20429;-63
2024/02/04 00:58:26;;;;;;;14.23;6.85;;;;;;;0.93;70.71;96615.34;5051273;28;20067;-65
2024/02/04 01:00:52;;;;;;;13.90;7.75;;;;;;;0.91;71.72;96597.03;5050694;28;20029;-63
2024/02/04 01:03:17;;;;;;;11.05;7.43;;;;;;;0.91;71.16;96580.41;5050058;28;20129;-63
2024/02/04 01:05:43;;;;;;;10.73;6.75;;;;;;;0.98;70.81;96582.34;5051506;28;20086;-63
2024/02/04 01:08:08;;;;;;;10.93;6.82;;;;;;;1.03;70.64;96584.53;5050316;28;20047;-63
2024/02/04 01:10:34;;;;;;;10.68;6.65;;;;;;;1.06;71.07;96580.78;5050720;28;20437;-64
2024/02/04 01:12:59;;;;;;;10.85;6.40;;;;;;;1.07;70.79;96582.44;5050466;28;20036;-63
2024/02/04 01:15:26;;;;;;;8.20;5.82;;;;;;;1.09;70.95;96580.50;5051359;28;20029;-68
2024/02/04 01:17:52;;;;;;;8.40;5.95;;;;;;;0.79;70.81;96514.72;5051262;28;20346;-62
2024/02/04 01:20:18;;;;;;;11.05;5.88;;;;;;;1.14;70.59;96559.81;5049720;28;20120;-62
2024/02/04 01:22:43;;;;;;;7.43;5.55;;;;;;;1.12;70.87;96549.41;5050445;28;20429;-63
2024/02/04 01:25:09;;;;;;;13.10;6.40;;;;;;;1.17;70.96;96550.78;5050984;28;20029;-63
2024/02/04 01:27:35;;;;;;;9.57;5.82;;;;;;;1.22;71.05;96549.38;5051051;28;20032;-62
2024/02/04 01:30:00;;;;;;;10.30;5.60;;;;;;;1.21;70.57;96544.25;5049259;28;20037;-62
2024/02/04 01:32:26;;;;;;;9.52;5.53;;;;;;;1.02;70.59;96506.47;5050438;28;20352;-69
2024/02/04 01:34:51;;;;;;;10.45;6.10;;;;;;;1.23;71.38;96531.75;5050880;28;20036;-63
2024/02/04 01:37:18;;;;;;;8.20;5.35;;;;;;;1.28;71.29;96540.88;5050980;28;20036;-65
2024/02/04 01:39:43;;;;;;;9.98;5.90;;;;;;;1.34;71.56;96538.63;5050287;28;20052;-64
2024/02/04 01:42:09;;;;;;;8.98;5.60;;;;;;;1.26;71.68;96516.47;5049832;28;20029;-64
2024/02/04 01:44:36;;;;;;;8.30;5.18;;;;;;;1.30;71.35;96514.38;5050805;28;20169;-65
2024/02/04 01:47:01;;;;;;;7.38;5.00;;;;;;;1.39;71.21;96524.03;5049567;28;20036;-63
2024/02/04 01:49:27;;;;;;;7.30;4.65;;;;;;;1.13;71.05;96474.66;5049242;27;20029;-69
2024/02/04 01:51:53;;;;;;;6.47;4.93;;;;;;;1.11;71.26;96459.97;5050381;28;20056;-63
2024/02/04 01:54:20;;;;;;;6.82;4.88;;;;;;;1.37;71.64;96501.44;5049885;28;20036;-63
2024/02/04 01:56:49;;;;;;;7.00;4.75;;;;;;;1.40;71.11;96504.59;5049696;28;20036;-65
2024/02/04 01:59:14;;;;;;;6.40;4.72;;;;;;;1.48;71.35;96506.50;5048691;28;20041;-64
2024/02/04 02:01:42;;;;;;;6.80;4.28;;;;;;;1.48;71.43;96519.69;5049872;28;20463;-64
2024/02/04 02:04:08;;;;;;;5.45;4.32;;;;;;;1.46;71.40;96494.44;5050101;28;20409;-64
2024/02/04 02:06:40;;;;;;;9.40;5.07;;;;;;;1.44;71.44;96491.94;5050080;28;20033;-63
2024/02/04 02:09:06;;;;;;;7.25;5.18;;;;;;;1.41;71.08;96476.44;5050108;28;20108;-61
2024/02/04 02:11:45;;;;;;;8.57;5.30;;;;;;;1.34;71.92;96463.03;5050089;28;20125;-62
2024/02/04 02:14:22;;;;;;;7.78;4.80;;;;;;;1.52;72.07;96494.69;5049365;28;20029;-64
2024/02/04 02:16:47;;;;;;;6.75;4.97;;;;;;;1.49;71.97;96484.44;5048736;28;20112;-64
2024/02/04 02:19:28;;;;;;;6.25;4.90;;;;;;;1.53;71.69;96475.25;5050027;28;20169;-62
2024/02/04 02:22:04;;;;;;;9.52;4.78;;;;;;;1.57;72.18;96473.97;5049585;28;20425;-63
2024/02/04 02:24:42;;;;;;;6.20;4.65;;;;;;;1.67;72.37;96471.25;5049942;28;20036;-64
2024/02/04 02:27:08;;;;;;;6.10;4.60;;;;;;;1.64;71.81;96471.56;5049845;28;20052;-64
2024/02/04 02:29:33;;;;;;;6.72;4.53;;;;;;;1.27;72.03;96411.88;5049452;28;20115;-64
2024/02/04 02:32:01;;;;;;;6.78;4.53;;;;;;;1.66;71.96;96468.75;5048539;28;20516;-68
2024/02/04 02:34:26;;;;;;;6.05;4.22;;;;;;;1.69;71.82;96473.75;5049631;28;20021;-63
2024/02/04 02:37:31;;;;;;;5.68;4.45;;;;;;;1.83;72.10;96475.84;5049432;28;20456;-64
2024/02/04 02:40:39;;;;;;;4.90;4.10;;;;;;;1.91;72.30;96453.97;5049330;28;20040;-63
2024/02/04 02:43:06;;;;;;;6.70;4.00;;;;;;;1.77;71.99;96441.31;5091088;28;20448;-63
2024/02/04 02:45:32;;;;;;;5.45;4.00;;;;;;;1.76;72.07;96435.22;5055220;28;20041;-62
2024/02/04 02:47:59;;;;;;;6.22;3.90;;;;;;;1.79;72.48;96437.56;5032380;28;20029;-65
2024/02/04 02:50:26;;;;;;;4.82;3.78;;;;;;;1.84;72.91;96443.19;5048826;27;20052;-64
2024/02/04 02:52:51;;;;;;;4.50;3.50;;;;;;;1.86;72.16;96435.16;5050018;28;20041;-63
2024/02/04 02:55:17;;;;;;;3.88;3.17;;;;;;;1.95;72.20;96438.69;5048071;28;20025;-63
2024/02/04 02:57:43;;;;;;;3.80;3.03;;;;;;;1.98;72.05;96435.72;5048837;28;20037;-65
2024/02/04 03:00:09;;;;;;;5.10;3.35;;;;;;;1.99;72.39;96422.38;5049614;28;20037;-65
2024/02/04 03:02:34;;;;;;;4.72;2.97;;;;;;;2.00;72.28;96420.56;5032147;28;20044;-66
2024/02/04 03:05:00;;;;;;;3.45;2.78;;;;;;;2.05;71.88;96434.13;5049225;28;20033;-65
2024/02/04 03:07:26;;;;;;;4.95;2.60;;;;;;;2.05;72.04;96412.19;5049238;28;20029;-65
2024/02/04 03:09:54;;;;;;;4.72;2.95;;;;;;;1.94;72.38;96392.19;5049478;28;20032;-65
2024/02/04 03:12:19;;;;;;;3.20;2.47;;;;;;;2.09;72.90;96411.72;5049645;28;20029;-62
2024/02/04 03:14:45;;;;;;;4.32;2.47;;;;;;;2.05;72.46;96407.75;5047605;28;20141;-63
2024/02/04 03:17:12;;;;;;;2.58;2.10;;;;;;;2.08;72.18;96404.78;5047518;28;20036;-65
2024/02/04 03:19:37;;;;;;;2.72;2.13;;;;;;;2.15;72.38;96408.47;5049093;28;20021;-63
2024/02/04 03:22:03;;;;;;;2.72;1.90;;;;;;;2.18;72.48;96403.88;5049575;28;20049;-64
2024/02/04 03:24:28;;;;;;;1.55;1.33;;;;;;;2.19;72.78;96397.63;5049105;28;20033;-63
2024/02/04 03:26:54;;;;;;;2.05;1.63;;;;;;;2.15;72.86;96395.25;5048749;28;20025;-65
2024/02/04 03:29:20;;;;;;;3.15;1.70;;;;;;;2.15;72.66;96391.81;5048267;28;20034;-65
2024/02/04 03:31:45;;;;;;;3.70;1.70;;;;;;;2.20;72.91;96413.28;5049344;28;20161;-65
2024/02/04 03:34:11;;;;;;;2.72;1.60;;;;;;;2.20;72.46;96402.72;5049369;28;20047;-64
2024/02/04 03:36:38;;;;;;;2.13;1.60;;;;;;;2.22;72.76;96410.50;5048567;28;20090;-63
2024/02/04 03:39:03;;;;;;;2.70;1.65;;;;;;;2.28;72.76;96404.59;5049122;28;20040;-63
2024/02/04 03:41:29;;;;;;;3.67;1.80;;;;;;;2.21;72.47;96398.28;5049474;28;20025;-64
2024/02/04 03:43:55;;;;;;;3.78;1.83;;;;;;;2.22;72.51;96394.66;5051662;28;20036;-63
2024/02/04 03:46:20;;;;;;;3.40;1.60;;;;;;;2.24;72.33;96395.31;5052251;28;20028;-63
2024/02/04 03:48:46;;;;;;;1.80;1.50;;;;;;;2.13;73.43;96386.66;5034155;28;20037;-63
2024/02/04 03:51:16;;;;;;;2.33;1.70;;;;;;;2.24;73.23;96382.13;5051668;27;20072;-63
2024/02/04 03:53:43;;;;;;;2.65;1.60;;;;;;;2.17;73.41;96386.34;5051957;28;20405;-63
2024/02/04 03:56:08;;;;;;;1.80;1.40;;;;;;;2.15;73.45;96375.97;5051717;28;20043;-65
2024/02/04 03:58:34;;;;;;;2.03;1.27;;;;;;;2.22;73.73;96384.91;5051168;28;20025;-65
2024/02/04 04:01:00;;;;;;;2.42;1.15;;;;;;;2.22;73.21;96384.91;5051894;28;20068;-65
2024/02/04 04:03:26;;;;;;;2.20;1.27;;;;;;;2.20;73.22;96386.88;5051209;28;20048;-64
2024/02/04 04:05:53;;;;;;;2.58;1.25;;;;;;;2.23;73.14;96385.75;5051952;28;20029;-63
2024/02/04 04:08:19;;;;;;;1.55;1.10;;;;;;;1.84;73.82;96319.22;5051483;28;20021;-64
2024/02/04 04:10:45;;;;;;;2.30;1.05;;;;;;;2.24;73.41;96382.13;5051790;28;20100;-63
2024/02/04 04:13:10;;;;;;;1.98;0.68;;;;;;;2.27;73.27;96381.81;5052038;28;20029;-64
2024/02/04 04:15:37;;;;;;;1.17;0.90;;;;;;;2.12;73.57;96344.63;5051719;28;20360;-64
2024/02/04 04:18:03;;;;;;;1.42;1.00;;;;;;;2.31;73.59;96377.88;5051968;28;20071;-63
2024/02/04 04:20:29;;;;;;;0.88;0.65;;;;;;;2.23;73.58;96354.09;5051202;28;20060;-63
2024/02/04 04:22:54;;;;;;;1.45;0.80;;;;;;;2.30;73.39;96355.09;5051376;28;20041;-63
2024/02/04 04:25:20;;;;;;;1.55;0.65;;;;;;;2.45;73.22;96373.81;5050368;28;20081;-62
2024/02/04 04:27:46;;;;;;;1.88;0.80;;;;;;;2.46;73.08;96370.19;5051704;28;20380;-62
2024/02/04 04:30:11;;;;;;;1.83;0.60;;;;;;;2.47;73.51;96369.19;5034182;28;20032;-63
2024/02/04 04:32:37;;;;;;;1.25;0.68;;;;;;;2.45;73.56;96363.25;5051273;28;20041;-63
2024/02/04 04:35:03;;;;;;;1.83;0.50;;;;;;;2.45;73.65;96363.25;5051365;28;20413;-62
2024/02/04 04:37:29;;;;;;;2.70;0.70;;;;;;;2.52;73.29;96360.81;5050741;28;20044;-61
2024/02/04 04:39:55;;;;;;;2.08;0.60;;;;;;;2.52;73.28;96374.00;5050091;28;20157;-62
2024/02/04 04:42:21;;;;;;;2.75;0.75;;;;;;;2.54;73.67;96357.03;5050247;28;20024;-64
2024/02/04 04:44:46;;;;;;;0.98;0.73;;;;;;;2.25;73.16;96317.78;5050275;28;20067;-64
2024/02/04 04:47:12;;;;;;;2.05;1.00;;;;;;;2.55;73.33;96355.22;5051590;28;20421;-62
2024/02/04 04:49:38;;;;;;;2.70;0.80;;;;;;;2.57;73.54;96361.16;5045718;28;20037;-55
2024/02/04 04:52:04;;;;;;;4.30;1.77;;;;;;;2.57;73.85;96354.06;5030354;28;20049;-61
2024/02/04 04:54:30;;;;;;;2.25;1.05;;;;;;;2.56;73.56;96355.06;5028952;28;20038;-61
2024/02/04 04:56:55;;;;;;;1.63;0.75;;;;;;;2.52;73.39;96350.25;5031796;28;20037;-62
2024/02/04 04:59:21;;;;;;;2.78;0.70;;;;;;;2.54;73.48;96337.72;5033670;27;20382;-61
2024/02/04 05:01:48;;;;;;;1.38;0.50;;;;;;;2.61;73.62;96357.19;5050883;28;20044;-60
2024/02/04 05:04:14;;;;;;;2.78;0.50;;;;;;;2.42;73.23;96313.41;5050634;28;20029;-57
2024/02/04 05:06:40;;;;;;;0.88;0.60;;;;;;;2.60;73.21;96344.97;5051483;28;20029;-60
2024/02/04 05:09:05;;;;;;;2.38;0.73;;;;;;;2.60;73.02;96355.53;5051566;28;20084;-56
2024/02/04 05:11:31;;;;;;;2.35;0.60;;;;;;;2.59;73.37;96332.75;5049799;28;20433;-60
2024/02/04 05:13:57;;;;;;;1.02;0.77;;;;;;;2.58;73.31;96346.97;5050643;28;20032;-60
2024/02/04 05:16:22;;;;;;;1.20;0.82;;;;;;;2.56;73.56;96338.38;5044029;28;20493;-73
2024/02/04 05:18:48;;;;;;;1.60;0.60;;;;;;;2.58;73.50;96326.66;5043462;28;20310;-61
2024/02/04 05:21:13;;;;;;;1.60;0.70;;;;;;;2.57;73.76;96342.66;5050291;28;20041;-64
2024/02/04 05:23:39;;;;;;;2.22;1.23;;;;;;;2.54;73.15;96329.78;5050447;28;20463;-63
2024/02/04 05:26:05;;;;;;;1.17;0.55;;;;;;;2.53;73.71;96336.06;5051284;28;20041;-62
2024/02/04 05:28:31;;;;;;;1.75;0.68;;;;;;;2.53;73.52;96338.69;5050786;28;20075;-63
2024/02/04 05:30:56;;;;;;;1.25;0.60;;;;;;;2.55;74.11;96326.16;5050395;28;20475;-62
2024/02/04 05:33:22;;;;;;;2.58;0.70;;;;;;;2.57;73.49;96329.47;5050378;28;20040;-64
2024/02/04 05:35:47;;;;;;;1.08;0.80;;;;;;;2.52;73.81;96323.84;5050677;28;20448;-62
2024/02/04 05:38:13;;;;;;;1.40;0.80;;;;;;;2.48;74.06;96325.16;5050277;28;20029;-62
2024/02/04 05:40:38;;;;;;;1.80;0.82;;;;;;;2.53;73.95;96328.13;5050037;28;20025;-64
2024/02/04 05:43:08;;;;;;;1.40;0.60;;;;;;;2.50;73.82;96339.81;5049977;28;20139;-63
2024/02/04 05:45:34;;;;;;;0.80;0.50;;;;;;;2.52;74.55;96337.03;5050418;28;20456;-70
2024/02/04 05:48:00;;;;;;;1.65;0.68;;;;;;;2.28;74.26;96288.44;5030251;28;20025;-66
2024/02/04 05:50:26;;;;;;;3.20;0.57;;;;;;;2.56;73.78;96323.38;5039377;28;20473;-69
2024/02/04 05:52:51;;;;;;;1.67;0.47;;;;;;;2.56;74.10;96327.81;5037909;28;20040;-71
2024/02/04 05:55:17;;;;;;;1.63;0.60;;;;;;;2.63;72.86;96334.09;5038894;28;20445;-70
2024/02/04 05:57:44;;;;;;;3.10;0.60;;;;;;;2.63;73.45;96330.66;5039900;28;20112;-70
2024/02/04 06:00:10;;;;;;;0.70;0.50;;;;;;;2.59;73.58;96332.75;5040408;28;20496;-66
2024/02/04 06:02:36;;;;;;;1.77;0.65;;;;;;;2.62;73.73;96332.44;5046134;28;20032;-70
2024/02/04 06:05:02;;;;;;;0.70;0.50;;;;;;;2.63;73.68;96339.38;5049175;28;20056;-70
2024/02/04 06:07:30;;;;;;;1.58;0.60;;;;;;;2.64;73.36;96345.50;5050029;28;20827;-69
2024/02/04 06:09:56;;;;;;;3.97;0.80;;;;;;;2.57;73.15;96340.88;5050129;28;20073;-70
2024/02/04 06:12:22;;;;;;;2.72;0.73;;;;;;;2.65;73.12;96353.28;5049847;28;20156;-70
2024/02/04 06:14:47;;;;;;;3.72;0.80;;;;;;;2.63;73.47;96349.94;5049668;28;20116;-70
2024/02/04 06:17:13;;;;;;;2.35;0.90;;;;;;;2.68;73.46;96360.88;5048719;28;20463;-69
2024/02/04 06:19:39;;;;;;;4.22;0.90;;;;;;;2.67;73.78;96358.38;5049302;28;20032;-69
2024/02/04 06:22:04;;;;;;;2.47;1.30;;;;;;;2.67;73.57;96364.50;5047831;28;20116;-69
2024/02/04 06:24:30;;;;;;;1.52;0.60;;;;;;;2.69;72.94;96367.81;5048701;28;20029;-70
2024/02/04 06:26:55;;;;;;;1.63;0.88;;;;;;;2.49;72.57;96332.09;5049378;28;20037;-70
2024/02/04 06:29:21;;;;;;;2.05;0.60;;;;;;;2.64;73.02;96372.72;5049557;28;20033;-69
2024/02/04 06:31:47;;;;;;;2.75;0.90;;;;;;;2.67;72.81;96382.16;5049484;28;20110;-70
2024/02/04 06:34:12;;;;;;;2.35;0.75;;;;;;;2.58;72.95;96383.94;5048712;28;20028;-65
2024/02/04 06:36:41;;;;;;;1.92;1.05;;;;;;;2.60;72.74;96395.16;5049149;28;20100;-67
2024/02/04 06:39:08;;;;;;;1.48;0.80;;;;;;;2.55;72.84;96389.53;5048096;28;20075;-69
2024/02/04 06:41:34;;;;;;;4.15;0.90;;;;;;;2.62;72.71;96389.75;5050025;28;20043;-70
2024/02/04 06:44:00;;;;;;;1.83;0.70;;;;;;;2.53;72.88;96391.50;5049751;28;20080;-71
2024/02/04 06:46:26;;;;;;;1.85;0.63;;;;;;;2.62;72.66;96401.13;5048699;28;20052;-68
2024/02/04 06:48:53;;;;;;;1.67;0.68;;;;;;;2.58;72.18;96405.06;5049275;28;20056;-70
2024/02/04 06:51:19;;;;;;;2.20;0.65;;;;;;;2.67;72.85;96408.56;5049575;28;20049;-70
2024/02/04 06:53:47;;;;;;;2.70;0.40;;;;;;;2.70;72.14;96409.09;5049661;28;20053;-69
2024/02/04 06:56:12;;;;;;;1.15;0.63;;;;;;;2.75;72.67;96416.53;5047801;27;20068;-69
2024/02/04 06:58:39;;;;;;;2.80;0.50;;;;;;;2.80;72.46;96410.75;5048932;28;20116;-69
2024/02/04 07:01:04;;;;;;;1.33;0.60;;;;;;;2.83;71.46;96413.09;5048905;28;20115;-67
2024/02/04 07:03:30;;;;;;;0.90;0.45;;;;;;;2.84;71.23;96406.81;5048542;28;20037;-70
2024/02/04 07:05:57;;;;;;;1.30;0.70;;;;;;;2.61;71.29;96383.63;5047718;28;20025;-69
2024/02/04 07:08:23;;;;;;;2.13;0.52;;;;;;;2.87;71.27;96415.25;5048912;28;20417;-70
2024/02/04 07:10:49;;;;;;;0.95;0.68;;;;;;;2.92;72.12;96430.66;5049609;28;20033;-69
2024/02/04 07:13:14;;;;;;;1.40;0.60;;;;;;;2.97;72.36;96430.16;5049409;28;20476;-66
2024/02/04 07:15:40;;;;;;;2.00;0.60;;;;;;;3.04;72.47;96443.56;5031257;28;20050;-69
2024/02/04 07:18:06;;;;;;;1.17;0.60;;;;;;;3.10;71.60;96445.53;5047087;28;20029;-70
2024/02/04 07:20:31;;;;;;;2.80;1.25;;;;;;;2.71;71.52;96386.97;5048920;28;20115;-70
2024/02/04 07:22:57;;;;;;;1.02;0.50;;;;;;;2.90;71.35;96432.63;5049146;28;20044;-70
2024/02/04 07:25:22;;;;;;;3.03;0.50;;;;;;;2.78;71.98;96437.38;5048830;28;20021;-75
2024/02/04 07:27:48;;;;;;;2.45;1.40;;;;;;;2.85;71.78;96453.38;5048190;28;20029;-69
2024/02/04 07:30:14;;;;;;;0.82;0.50;;;;;;;2.69;71.42;96449.69;5115258;28;20058;-70
2024/02/04 07:32:40;;;;;;;1.63;0.45;;;;;;;2.69;72.17;96460.25;5133287;27;20046;-69
2024/02/04 07:35:06;;;;;;;0.95;0.70;;;;;;;2.60;72.31;96466.47;5114314;28;20124;-67
2024/02/04 07:37:32;;;;;;;0.82;0.50;;;;;;;2.60;72.89;96470.94;5048369;28;20083;-67
2024/02/04 07:39:58;;;;;;;0.73;0.50;;;;;;;2.57;72.41;96491.41;5031080;28;20441;-69
2024/02/04 07:42:24;;;;;;;1.13;0.50;;;;;;;2.60;73.04;96474.41;5044854;28;20082;-71
2024/02/04 07:44:50;;;;;;;0.73;0.45;;;;;;;2.62;73.79;96477.72;5126968;28;20035;-69
2024/02/04 07:47:16;;;;;;;1.10;0.70;;;;;;;2.60;72.98;96471.75;5132577;28;20023;-68
2024/02/04 07:49:42;;;;;;;1.23;0.50;;;;;;;2.66;73.22;96479.06;5133007;27;20043;-68
2024/02/04 07:52:07;;;;;;;1.30;0.60;;;;;;;2.46;73.17;96448.59;5131286;28;20133;-66
2024/02/04 07:54:33;;;;;;;1.02;0.70;;;;;;;2.72;73.96;96496.09;5126114;27;20156;-68
2024/02/04 07:56:59;;;;;;;1.95;0.52;;;;;;;2.78;73.33;96495.47;5132674;27;20339;-68
2024/02/04 07:59:25;;;;;;;0.95;0.50;;;;;;;2.76;72.12;96502.72;5132342;27;20055;-69
2024/02/04 08:01:50;;;;;;;2.15;0.75;;;;;;;2.83;71.91;96500.28;5132387;27;20046;-69
2024/02/04 08:04:16;;;;;;;4.00;0.70;;;;;;;2.69;72.73;96507.81;5132030;28;20031;-63
2024/02/04 08:06:42;;;;;;;2.63;0.68;;;;;;;2.77;72.35;96519.41;5046565;28;20022;-67
2024/02/04 08:09:08;;;;;;;1.90;0.60;;;;;;;2.73;72.80;96518.88;5040210;28;20109;-65
2024/02/04 08:11:33;;;;;;;0.80;0.60;;;;;;;2.63;72.47;96518.97;5048108;28;20028;-67
2024/02/04 08:14:00;;;;;;;1.65;0.50;;;;;;;2.82;71.50;96532.97;5047616;28;20036;-66
2024/02/04 08:16:26;;;;;;;1.30;0.68;;;;;;;2.80;72.90;96550.78;5047753;28;20143;-65
2024/02/04 08:18:51;;;;;;;1.83;0.85;;;;;;;2.87;72.89;96552.66;5048178;28;20116;-62
2024/02/04 08:21:17;;;;;;;1.83;0.70;;;;;;;2.91;73.03;96544.41;5047953;28;20078;-65
2024/02/04 08:23:44;;;;;;;2.13;0.70;;;;;;;2.94;72.05;96546.75;5047476;28;20054;-63
2024/02/04 08:26:10;;;;;;;0.80;0.50;;;;;;;3.00;71.94;96562.81;5047408;28;20424;-63
2024/02/04 08:28:36;;;;;;;2.25;0.70;;;;;;;3.08;70.94;96569.97;5047977;28;20134;-65
2024/02/04 08:31:01;;;;;;;3.30;0.90;;;;;;;3.04;70.48;96559.84;5050994;28;20056;-65
2024/02/04 08:33:27;;;;;;;3.35;0.90;;;;;;;3.06;71.48;96576.38;5049255;28;20726;-65
2024/02/04 08:35:52;;;;;;;1.45;0.70;;;;;;;2.96;70.97;96574.69;5050645;28;20108;-65
2024/02/04 08:38:18;;;;;;;2.38;0.95;;;;;;;3.06;70.13;96581.66;5051824;28;20433;-66
2024/02/04 08:40:43;;;;;;;2.03;0.88;;;;;;;2.91;70.94;96560.28;5050982;28;20033;-67
2024/02/04 08:43:09;;;;;;;2.30;1.00;;;;;;;2.94;70.60;96581.09;5032968;28;20037;-66
2024/02/04 08:45:34;;;;;;;2.55;0.80;;;;;;;2.85;71.55;96578.41;5051076;28;20032;-66
2024/02/04 08:48:00;;;;;;;4.72;1.30;;;;;;;2.86;71.14;96597.72;5050334;28;20036;-65
2024/02/04 08:50:25;;;;;;;3.00;1.10;;;;;;;2.95;69.88;96595.97;5050370;28;20128;-65
2024/02/04 08:52:51;;;;;;;3.67;1.05;;;;;;;2.97;70.22;96589.56;5050172;28;20082;-65
2024/02/04 08:55:17;;;;;;;3.85;1.17;;;;;;;2.94;70.07;96587.22;5050485;28;20021;-62
2024/02/04 08:57:44;;;;;;;3.63;1.40;;;;;;;3.00;70.00;96604.25;5051594;28;20040;-63
2024/02/04 09:00:11;;;;;;;5.32;1.42;;;;;;;2.96;69.99;96600.25;5049634;27;20460;-63
2024/02/04 09:02:38;;;;;;;4.10;1.38;;;;;;;2.90;69.36;96591.16;5050213;28;20029;-67
2024/02/04 09:05:04;;;;;;;6.70;1.65;;;;;;;3.07;68.22;96607.94;5116421;27;20447;-65
2024/02/04 09:07:31;;;;;;;6.72;1.50;;;;;;;3.15;68.67;96615.91;5135384;27;20035;-66
2024/02/04 09:09:57;;;;;;;4.35;1.45;;;;;;;3.12;68.24;96620.69;5135065;27;20027;-64
2024/02/04 09:12:22;;;;;;;7.95;1.70;;;;;;;2.96;67.82;96579.13;5133482;27;20084;-69
2024/02/04 09:14:48;;;;;;;9.20;1.50;;;;;;;2.92;68.31;96607.69;5134164;27;20042;-68
2024/02/04 09:17:14;;;;;;;6.97;1.80;;;;;;;3.04;68.45;96612.69;5135241;27;20096;-66
2024/02/04 09:19:40;;;;;;;4.43;1.65;;;;;;;3.08;67.86;96624.63;5134094;27;20031;-67
2024/02/04 09:22:05;;;;;;;5.80;2.00;;;;;;;3.20;68.94;96626.03;5130807;27;20027;-68
2024/02/04 09:24:31;;;;;;;4.97;1.30;;;;;;;2.96;66.70;96572.03;5128329;27;20027;-65
2024/02/04 09:26:57;;;;;;;5.20;1.80;;;;;;;3.11;67.53;96611.94;5134112;27;20051;-67
2024/02/04 09:29:23;;;;;;;5.55;1.73;;;;;;;3.19;67.03;96616.44;5127004;27;20031;-66
2024/02/04 09:31:50;;;;;;;7.40;2.00;;;;;;;3.25;66.13;96613.16;5127342;27;20035;-68
2024/02/04 09:34:16;;;;;;;7.30;1.75;;;;;;;2.95;67.06;96572.19;5134459;27;20027;-65
2024/02/04 09:36:43;;;;;;;10.27;2.25;;;;;;;3.30;67.64;96612.69;5134011;27;20031;-65
2024/02/04 09:39:09;;;;;;;6.95;1.90;;;;;;;3.47;66.41;96616.25;5133151;27;20058;-66
2024/02/04 09:41:35;;;;;;;5.30;1.98;;;;;;;3.57;66.08;96630.16;5077598;28;20075;-68
2024/02/04 09:44:03;;;;;;;7.75;2.15;;;;;;;3.65;65.73;96634.66;5032069;28;20039;-67
2024/02/04 09:46:29;;;;;;;6.70;1.77;;;;;;;3.61;65.98;96635.13;5049740;28;20410;-66
2024/02/04 09:48:55;;;;;;;7.13;1.83;;;;;;;3.42;65.62;96608.78;5047979;28;20033;-72
2024/02/04 09:51:22;;;;;;;11.00;1.92;;;;;;;3.61;65.55;96651.00;5049204;28;20045;-72
2024/02/04 09:53:52;;;;;;;7.60;1.73;;;;;;;3.44;65.88;96641.19;5049647;27;20105;-69
2024/02/04 09:56:20;;;;;;;10.30;2.30;;;;;;;3.34;65.91;96640.47;5047813;27;20037;-76
2024/02/04 09:58:46;;;;;;;11.40;1.88;;;;;;;3.30;66.43;96653.19;5047390;28;20033;-73
2024/02/04 10:01:12;;;;;;;6.65;1.77;;;;;;;3.22;66.66;96650.50;5048028;27;20045;-73
2024/02/04 10:03:38;;;;;;;9.95;2.00;;;;;;;3.14;65.30;96653.09;5048988;28;20029;-77
2024/02/04 10:06:04;;;;;;;4.60;1.63;;;;;;;2.82;65.68;96609.59;5049800;28;20025;-75
2024/02/04 10:08:30;;;;;;;11.68;2.40;;;;;;;3.05;66.41;96636.34;5050742;28;20048;-76
2024/02/04 10:10:55;;;;;;;7.13;2.03;;;;;;;3.11;64.85;96622.50;5049421;28;20033;-77
2024/02/04 10:13:22;;;;;;;5.47;1.73;;;;;;;3.37;64.37;96648.09;5050492;28;20028;-76
2024/02/04 10:15:48;;;;;;;11.10;2.70;;;;;;;3.50;62.94;96657.44;5050106;28;20473;-76
2024/02/04 10:18:14;;;;;;;7.90;1.67;;;;;;;3.20;63.03;96614.59;5050021;28;20036;-75
2024/02/04 10:20:39;;;;;;;8.15;2.45;;;;;;;3.52;62.63;96664.22;5048831;28;20044;-76
2024/02/04 10:23:05;;;;;;;9.77;2.20;;;;;;;3.45;62.56;96668.47;5050337;28;20029;-76
2024/02/04 10:25:31;;;;;;;9.02;1.98;;;;;;;3.58;62.02;96658.28;5049820;28;20433;-72
2024/02/04 10:27:58;;;;;;;11.35;2.28;;;;;;;3.77;61.47;96661.69;5049910;28;20044;-75
2024/02/04 10:30:24;;;;;;;8.57;1.73;;;;;;;3.90;60.30;96657.75;5050046;28;20029;-75
2024/02/04 10:32:53;;;;;;;9.85;1.88;;;;;;;4.10;59.89;96677.69;5050520;28;20455;-76
2024/02/04 10:35:25;;;;;;;7.82;2.70;;;;;;;4.07;59.96;96659.44;5048916;28;20082;-78
2024/02/04 10:37:51;;;;;;;8.98;2.50;;;;;;;4.07;59.69;96667.41;5051009;28;20051;-77
2024/02/04 10:40:17;;;;;;;10.07;2.22;;;;;;;4.10;59.25;96683.00;5049786;28;20025;-76
2024/02/04 10:42:43;;;;;;;8.40;2.00;;;;;;;3.94;59.59;96681.09;5050300;28;20036;-77
2024/02/04 10:45:10;;;;;;;10.02;2.08;;;;;;;3.84;59.41;96670.63;5050805;28;20459;-77
2024/02/04 10:47:38;;;;;;;8.80;1.85;;;;;;;3.86;59.83;96691.66;5048824;28;20108;-77
2024/02/04 10:50:05;;;;;;;8.02;1.88;;;;;;;3.83;60.19;96697.28;5049852;28;20049;-76
2024/02/04 10:52:39;;;;;;;8.50;1.85;;;;;;;3.89;59.14;96693.97;5050607;28;20468;-78
2024/02/04 10:55:11;;;;;;;11.00;2.13;;;;;;;3.45;59.43;96642.84;5055809;28;20085;-77
2024/02/04 10:57:40;;;;;;;8.15;1.80;;;;;;;3.70;59.81;96697.69;5058743;28;20039;-77
2024/02/04 11:00:08;;;;;;;9.50;2.20;;;;;;;3.63;59.92;96701.97;5058523;28;20028;-77
2024/02/04 11:02:35;;;;;;;9.68;2.03;;;;;;;3.66;60.38;96706.94;5050620;27;20033;-76
2024/02/04 11:05:03;;;;;;;10.85;2.15;;;;;;;3.63;59.88;96707.25;5050285;28;20028;-76
2024/02/04 11:07:32;;;;;;;9.45;1.83;;;;;;;3.53;59.70;96713.47;5050350;28;20415;-76
2024/02/04 11:09:58;;;;;;;6.30;1.70;;;;;;;3.61;60.16;96711.84;5048917;28;20348;-76
2024/02/04 11:12:25;;;;;;;8.55;1.80;;;;;;;3.64;60.01;96701.00;5049841;28;20128;-80
2024/02/04 11:14:54;;;;;;;4.97;1.65;;;;;;;3.64;59.34;96693.06;5030650;28;20442;-78
2024/02/04 11:17:38;;;;;;;10.90;1.90;;;;;;;4.00;59.71;96709.59;5029294;28;20041;-73
2024/02/04 11:20:46;;;;;;;7.55;1.92;;;;;;;4.19;59.65;96712.94;5047265;28;20487;-75
2024/02/04 11:23:49;;;;;;;5.70;1.77;;;;;;;4.35;59.40;96712.19;5049702;28;20049;-72
2024/02/04 11:26:16;;;;;;;12.02;2.33;;;;;;;4.31;57.76;96708.19;5048161;28;20037;-76
2024/02/04 11:28:42;;;;;;;8.30;1.35;;;;;;;4.41;56.86;96708.88;5048694;28;20036;-64
2024/02/04 11:31:17;;;;;;;6.45;1.52;;;;;;;4.43;57.59;96704.25;5048357;28;20390;-65
2024/02/04 11:33:42;;;;;;;7.28;1.70;;;;;;;4.51;57.57;96705.25;5048604;28;20098;-73
2024/02/04 11:36:13;;;;;;;9.13;1.85;;;;;;;4.73;56.23;96712.56;5047561;28;20021;-75
2024/02/04 11:38:39;;;;;;;6.88;1.75;;;;;;;4.76;56.06;96721.19;5048845;28;20025;-74